Time;durP1;ratioP1;P1;durP2;ratioP2;P2;SDS_P1;SDS_P2;PMS_P1;PMS_P2;Temp;Humidity;BMP_temperature;BMP_pressure;BME280_temperature;BME280_humidity;BME280_pressure;Samples;Min_cycle;Max_cycle;Signal;HPM_P1;HPM_P2
2021/05/03 00:02:20;;;;;;;3.93;3.50;;;;;;;5.01;59.15;99297.19;5009898;28;42032;-77
2021/05/03 00:04:47;;;;;;;3.30;3.10;;;;;;;5.13;59.22;99316.06;5010491;28;42901;-78
2021/05/03 00:07:15;;;;;;;3.60;3.30;;;;;;;5.04;58.94;99312.84;5010734;28;39999;-77
2021/05/03 00:09:42;;;;;;;3.90;3.60;;;;;;;5.08;59.19;99324.06;5009145;28;41606;-77
2021/05/03 00:12:09;;;;;;;3.60;3.30;;;;;;;4.94;58.98;99316.66;5009651;28;43656;-78
2021/05/03 00:14:37;;;;;;;3.57;3.17;;;;;;;5.00;58.83;99336.59;5010462;28;41963;-78
2021/05/03 00:17:05;;;;;;;3.47;3.13;;;;;;;4.87;58.80;99314.28;4993144;28;39919;-77
2021/05/03 00:19:32;;;;;;;3.57;3.27;;;;;;;4.90;59.10;99319.44;5010382;28;41656;-78
2021/05/03 00:21:59;;;;;;;3.80;3.40;;;;;;;4.75;59.41;99306.78;4992497;28;43208;-78
2021/05/03 00:24:26;;;;;;;4.27;3.80;;;;;;;4.80;59.42;99323.25;4993070;28;41231;-78
2021/05/03 00:26:53;;;;;;;5.20;4.70;;;;;;;4.72;59.39;99309.50;4993766;28;40839;-78
2021/05/03 00:29:20;;;;;;;5.00;4.13;;;;;;;4.81;59.81;99336.34;5009042;28;41700;-78
2021/05/03 00:31:48;;;;;;;5.23;4.27;;;;;;;4.80;59.92;99328.50;5009061;28;43409;-77
2021/05/03 00:34:16;;;;;;;4.53;4.13;;;;;;;4.78;60.36;99325.06;5009247;28;42081;-78
2021/05/03 00:36:43;;;;;;;5.40;4.30;;;;;;;4.72;60.03;99325.25;4980607;28;38960;-77
2021/05/03 00:39:10;;;;;;;3.77;3.57;;;;;;;4.72;59.81;99333.13;4974077;28;40748;-78
2021/05/03 00:41:37;;;;;;;4.13;3.83;;;;;;;4.61;59.95;99323.81;4989408;28;42651;-77
2021/05/03 00:44:05;;;;;;;5.70;3.83;;;;;;;4.68;59.98;99335.00;4991442;28;42035;-77
2021/05/03 00:46:32;;;;;;;4.57;3.80;;;;;;;4.55;59.85;99323.16;4990755;28;39717;-77
2021/05/03 00:49:00;;;;;;;4.43;4.00;;;;;;;4.62;59.93;99341.28;4973925;28;41366;-77
2021/05/03 00:51:28;;;;;;;3.93;3.63;;;;;;;4.65;59.58;99337.72;4989933;28;42696;-77
2021/05/03 00:53:56;;;;;;;4.70;4.30;;;;;;;4.65;59.83;99340.34;4973735;28;41140;-77
2021/05/03 00:56:23;;;;;;;3.97;3.67;;;;;;;4.62;60.16;99340.41;4990669;28;39959;-78
2021/05/03 00:58:50;;;;;;;4.37;3.97;;;;;;;4.62;60.29;99346.53;4989728;28;41067;-77
2021/05/03 01:01:18;;;;;;;4.33;3.90;;;;;;;4.60;60.20;99343.09;4973389;28;42744;-78
2021/05/03 01:03:46;;;;;;;3.90;3.60;;;;;;;4.57;59.96;99344.97;4989290;28;42084;-77
2021/05/03 01:06:18;;;;;;;4.27;3.63;;;;;;;4.52;60.31;99349.47;4989069;28;39699;-77
2021/05/03 01:08:46;;;;;;;3.80;3.50;;;;;;;4.41;60.37;99336.69;4989315;28;40814;-78
2021/05/03 01:11:13;;;;;;;4.83;4.33;;;;;;;4.44;60.73;99351.50;4973307;28;41766;-77
2021/05/03 01:13:40;;;;;;;4.37;3.90;;;;;;;4.39;60.87;99349.00;4972948;28;41101;-77
2021/05/03 01:16:08;;;;;;;4.43;4.03;;;;;;;4.36;61.35;99343.81;4972653;28;39900;-77
2021/05/03 01:18:36;;;;;;;5.30;3.77;;;;;;;4.33;61.06;99352.63;4988377;28;41738;-77
2021/05/03 01:21:05;;;;;;;5.13;4.13;;;;;;;4.28;61.01;99346.69;4990378;28;42696;-77
2021/05/03 01:23:32;;;;;;;4.30;3.90;;;;;;;4.28;61.08;99346.69;4989609;28;42562;-77
2021/05/03 01:26:00;;;;;;;4.03;3.63;;;;;;;4.27;61.44;99349.34;4989669;28;40590;-77
2021/05/03 01:28:27;;;;;;;4.03;3.63;;;;;;;4.25;61.47;99351.16;4972446;28;41911;-77
2021/05/03 01:30:54;;;;;;;3.63;3.33;;;;;;;4.17;61.26;99353.16;4989616;28;43628;-77
2021/05/03 01:33:21;;;;;;;3.23;3.03;;;;;;;4.19;61.41;99356.59;4988184;28;42128;-77
2021/05/03 01:35:49;;;;;;;5.13;4.30;;;;;;;4.15;62.45;99354.94;4978373;28;39012;-77
2021/05/03 01:38:17;;;;;;;5.60;4.37;;;;;;;4.07;62.42;99351.69;4991981;28;41553;-77
2021/05/03 01:40:46;;;;;;;5.93;5.43;;;;;;;4.07;62.15;99362.19;4992985;28;41959;-77
2021/05/03 01:43:15;;;;;;;4.83;3.93;;;;;;;4.02;62.42;99357.06;5021840;28;42030;-76
2021/05/03 01:45:43;;;;;;;4.40;4.00;;;;;;;4.03;62.52;99360.53;5008071;28;39437;-77
2021/05/03 01:48:15;;;;;;;3.93;3.63;;;;;;;4.01;62.88;99362.34;5009827;28;41393;-77
2021/05/03 01:50:43;;;;;;;4.20;3.80;;;;;;;3.98;62.56;99366.75;4991079;28;43053;-77
2021/05/03 01:53:10;;;;;;;4.93;4.17;;;;;;;3.84;63.14;99345.31;4992594;28;41633;-77
2021/05/03 01:55:40;;;;;;;4.10;3.80;;;;;;;3.93;62.96;99365.19;5009075;28;39895;-77
2021/05/03 01:58:08;;;;;;;5.47;4.77;;;;;;;3.91;62.92;99366.97;4991859;28;41425;-77
2021/05/03 02:00:39;;;;;;;6.50;5.67;;;;;;;3.85;63.37;99356.66;5007595;28;42683;-77
2021/05/03 02:03:21;;;;;;;4.80;4.40;;;;;;;3.78;64.20;99344.63;4993637;28;41229;-78
2021/05/03 02:06:01;;;;;;;5.13;4.60;;;;;;;3.82;63.39;99368.09;5008998;28;41154;-76
2021/05/03 02:08:32;;;;;;;5.17;4.40;;;;;;;3.85;63.54;99373.22;4991830;28;40612;-78
2021/05/03 02:11:00;;;;;;;4.10;3.80;;;;;;;3.71;63.32;99354.41;4991591;28;43037;-77
2021/05/03 02:13:28;;;;;;;4.90;4.10;;;;;;;3.76;63.15;99373.50;5008199;28;42076;-77
2021/05/03 02:15:55;;;;;;;4.20;3.83;;;;;;;3.78;63.15;99381.31;5008805;28;39828;-77
2021/05/03 02:18:22;;;;;;;4.70;4.30;;;;;;;3.74;63.11;99385.75;5007718;28;41657;-77
2021/05/03 02:20:49;;;;;;;4.00;3.70;;;;;;;3.73;63.15;99388.41;4991545;28;42052;-77
2021/05/03 02:23:17;;;;;;;4.70;4.17;;;;;;;3.71;63.12;99385.84;5007144;28;42092;-77
2021/05/03 02:25:44;;;;;;;3.80;3.50;;;;;;;3.67;63.26;99386.84;5007745;28;39942;-78
2021/05/03 02:28:13;;;;;;;5.03;4.53;;;;;;;3.59;63.02;99375.69;5007064;28;40323;-77
2021/05/03 02:30:41;;;;;;;6.90;5.20;;;;;;;3.63;63.34;99381.69;5007495;28;42799;-77
2021/05/03 02:33:09;;;;;;;5.20;4.13;;;;;;;3.61;63.52;99381.75;5009453;28;42369;-77
2021/05/03 02:35:36;;;;;;;4.60;4.20;;;;;;;3.57;63.44;99380.97;5005527;28;39989;-77
2021/05/03 02:38:08;;;;;;;4.27;3.83;;;;;;;3.53;63.34;99381.94;4988514;28;42061;-76
2021/05/03 02:40:36;;;;;;;4.23;3.90;;;;;;;3.51;63.46;99386.34;4971837;28;41866;-77
2021/05/03 02:43:04;;;;;;;4.83;4.07;;;;;;;3.44;63.52;99376.97;4987826;28;41774;-77
2021/05/03 02:45:33;;;;;;;4.87;4.47;;;;;;;3.46;63.64;99382.97;4986462;28;40642;-77
2021/05/03 02:48:01;;;;;;;4.67;4.27;;;;;;;3.44;63.87;99389.19;4987820;28;41488;-77
2021/05/03 02:50:30;;;;;;;5.40;4.90;;;;;;;3.44;64.16;99386.56;4971250;28;41415;-77
2021/05/03 02:52:57;;;;;;;4.80;4.40;;;;;;;3.27;64.07;99365.19;4987202;28;42231;-77
2021/05/03 02:55:24;;;;;;;4.03;3.73;;;;;;;3.40;63.99;99388.41;4989259;28;41503;-77
2021/05/03 02:57:52;;;;;;;4.40;3.97;;;;;;;3.38;63.74;99394.56;4988803;28;41726;-77
2021/05/03 03:00:24;;;;;;;4.37;3.90;;;;;;;3.36;63.77;99393.72;4971979;28;42767;-77
2021/05/03 03:02:53;;;;;;;5.60;3.93;;;;;;;3.34;64.17;99396.38;4971212;28;41518;-77
2021/05/03 03:05:20;;;;;;;4.20;3.80;;;;;;;3.33;64.02;99399.06;4987686;28;39011;-77
2021/05/03 03:07:48;;;;;;;4.50;4.10;;;;;;;3.15;63.91;99369.81;4970905;28;41657;-77
2021/05/03 03:10:16;;;;;;;4.97;4.57;;;;;;;3.30;64.50;99394.75;4971694;28;42016;-77
2021/05/03 03:12:43;;;;;;;4.93;4.53;;;;;;;3.30;64.31;99404.38;4986663;28;42060;-78
2021/05/03 03:15:12;;;;;;;4.47;4.07;;;;;;;3.21;64.30;99393.22;4971865;28;40364;-77
2021/05/03 03:17:39;;;;;;;4.57;4.17;;;;;;;3.23;64.21;99404.50;4988884;28;41860;-77
2021/05/03 03:20:10;;;;;;;4.47;4.03;;;;;;;3.19;64.15;99402.88;4987242;28;42589;-77
2021/05/03 03:22:38;;;;;;;4.40;4.00;;;;;;;3.18;64.22;99406.41;4971372;28;42260;-77
2021/05/03 03:25:07;;;;;;;4.17;3.73;;;;;;;3.16;64.23;99412.56;4987547;28;40724;-77
2021/05/03 03:27:34;;;;;;;4.63;4.23;;;;;;;3.03;64.17;99396.28;4987231;28;42243;-78
2021/05/03 03:30:01;;;;;;;4.20;3.90;;;;;;;3.10;64.11;99421.38;4987026;28;43169;-77
2021/05/03 03:32:28;;;;;;;4.37;3.90;;;;;;;3.07;64.24;99424.09;4987020;28;41889;-77
2021/05/03 03:34:56;;;;;;;4.70;4.17;;;;;;;3.05;63.98;99425.91;4987889;28;39103;-77
2021/05/03 03:37:24;;;;;;;4.00;3.70;;;;;;;2.99;63.95;99436.47;5001130;28;41635;-77
2021/05/03 03:39:51;;;;;;;4.30;4.00;;;;;;;2.97;64.15;99435.66;4988886;28;43173;-77
2021/05/03 03:42:18;;;;;;;5.30;4.10;;;;;;;2.96;64.25;99431.34;4988054;28;42162;-79
2021/05/03 03:44:45;;;;;;;5.30;4.67;;;;;;;2.83;64.52;99409.84;4987714;28;41461;-77
2021/05/03 03:47:12;;;;;;;4.60;4.20;;;;;;;2.94;64.30;99432.25;4988767;28;41601;-76
2021/05/03 03:49:39;;;;;;;5.60;4.77;;;;;;;2.92;64.36;99432.28;4971043;28;42486;-77
2021/05/03 03:52:06;;;;;;;5.27;4.40;;;;;;;2.91;64.54;99430.56;4971048;28;42041;-77
2021/05/03 03:54:34;;;;;;;5.43;4.93;;;;;;;2.89;64.42;99440.19;4987289;28;38891;-77
2021/05/03 03:57:02;;;;;;;4.63;4.20;;;;;;;2.91;64.28;99441.03;4988876;28;41410;-77
2021/05/03 03:59:32;;;;;;;4.67;4.27;;;;;;;2.89;64.22;99443.69;4990973;28;41904;-77
2021/05/03 04:01:59;;;;;;;5.40;4.07;;;;;;;2.90;64.21;99441.94;4990587;28;41317;-77
2021/05/03 04:04:29;;;;;;;4.47;4.07;;;;;;;2.89;64.31;99448.91;4989760;28;39878;-77
2021/05/03 04:07:01;;;;;;;4.17;3.87;;;;;;;2.88;64.23;99449.81;5005716;28;42690;-77
2021/05/03 04:09:35;;;;;;;3.70;3.40;;;;;;;2.79;64.28;99423.00;4974295;28;42710;-76
2021/05/03 04:25:47;;;;;;;5.40;4.50;;;;;;;3.07;64.24;99457.25;5009104;28;40060;-77
2021/05/03 04:28:15;;;;;;;5.37;3.67;;;;;;;3.10;64.52;99452.78;5018995;28;41330;-77
2021/05/03 04:30:42;;;;;;;5.20;4.57;;;;;;;3.09;64.31;99448.44;5020585;28;42860;-77
2021/05/03 04:33:09;;;;;;;4.83;4.43;;;;;;;3.21;64.17;99458.63;5013432;28;41168;-77
2021/05/03 04:35:37;;;;;;;5.13;4.63;;;;;;;3.30;64.04;99467.19;5010827;28;41620;-77
2021/05/03 04:38:04;;;;;;;4.37;3.97;;;;;;;3.35;64.10;99462.69;5010443;28;42358;-77
2021/05/03 04:40:32;;;;;;;4.27;3.87;;;;;;;3.43;64.04;99469.50;5009046;28;42476;-76
2021/05/03 04:42:59;;;;;;;7.80;5.23;;;;;;;3.55;64.77;99468.34;5010016;28;42169;-77
2021/05/03 04:45:27;;;;;;;4.93;4.53;;;;;;;3.54;64.33;99450.91;4989261;28;40062;-77
2021/05/03 04:47:55;;;;;;;5.90;5.10;;;;;;;3.81;64.43;99473.78;5006790;28;41658;-77
2021/05/03 04:50:22;;;;;;;7.60;5.03;;;;;;;3.93;64.34;99475.22;5015664;28;43505;-77
2021/05/03 04:52:49;;;;;;;5.47;4.93;;;;;;;4.00;64.06;99465.44;5009448;28;43104;-77
2021/05/03 04:55:16;;;;;;;4.70;4.30;;;;;;;4.15;64.10;99476.38;5008925;28;40584;-78
2021/05/03 04:57:44;;;;;;;4.57;4.13;;;;;;;4.27;64.04;99489.16;4988857;28;41817;-77
2021/05/03 05:00:12;;;;;;;7.57;4.77;;;;;;;4.46;63.72;99476.38;4989570;28;43457;-78
2021/05/03 05:02:40;;;;;;;5.10;4.53;;;;;;;4.66;63.98;99479.34;5001373;28;43006;-77
2021/05/03 05:05:10;;;;;;;6.50;5.57;;;;;;;4.80;63.80;99470.19;4992897;28;40241;-78
2021/05/03 05:07:38;;;;;;;7.93;5.00;;;;;;;4.97;63.66;99473.16;5009085;28;42407;-77
2021/05/03 05:10:06;;;;;;;5.60;4.93;;;;;;;5.13;63.09;99474.44;5007597;28;42712;-77
2021/05/03 05:12:33;;;;;;;5.43;4.60;;;;;;;5.28;62.98;99481.84;5009408;28;42907;-77
2021/05/03 05:15:01;;;;;;;5.27;4.77;;;;;;;5.43;63.10;99482.28;4991971;28;38758;-78
2021/05/03 05:17:28;;;;;;;4.50;4.10;;;;;;;5.53;62.79;99478.44;4991922;28;41693;-77
2021/05/03 05:19:56;;;;;;;5.37;4.60;;;;;;;5.60;62.76;99479.94;4989310;28;41799;-77
2021/05/03 05:22:24;;;;;;;5.37;4.63;;;;;;;5.66;62.60;99485.03;4988513;28;43068;-78
2021/05/03 05:24:51;;;;;;;5.50;4.90;;;;;;;5.68;62.97;99493.72;4988774;28;40918;-77
2021/05/03 05:27:19;;;;;;;5.33;4.83;;;;;;;5.76;62.81;99489.06;5004721;28;40798;-78
2021/05/03 05:29:46;;;;;;;5.10;4.60;;;;;;;5.88;62.47;99493.94;4973249;28;41935;-77
2021/05/03 05:32:13;;;;;;;5.40;4.90;;;;;;;5.96;62.81;99494.53;4972896;28;41887;-78
2021/05/03 05:34:40;;;;;;;7.10;4.87;;;;;;;6.10;62.59;99492.31;4990668;28;40676;-77
2021/05/03 05:37:08;;;;;;;6.30;4.90;;;;;;;6.19;62.65;99479.75;4992550;28;40887;-77
2021/05/03 05:39:35;;;;;;;7.90;6.07;;;;;;;6.40;61.87;99493.00;4992087;28;41909;-77
2021/05/03 05:42:02;;;;;;;7.27;5.30;;;;;;;6.65;61.44;99498.25;4992191;28;41570;-79
2021/05/03 05:44:29;;;;;;;6.50;5.50;;;;;;;6.74;60.66;99484.75;5009491;28;39888;-78
2021/05/03 05:46:57;;;;;;;6.03;4.90;;;;;;;7.00;60.58;99502.22;5006208;28;41647;-77
2021/05/03 05:49:24;;;;;;;7.57;5.30;;;;;;;7.13;60.20;99502.63;4989061;28;43463;-78
2021/05/03 05:51:51;;;;;;;8.90;5.30;;;;;;;7.27;60.09;99507.34;4972343;28;41563;-78
2021/05/03 05:54:19;;;;;;;6.30;5.30;;;;;;;7.37;59.44;99514.84;4998575;28;38937;-78
2021/05/03 05:56:47;;;;;;;6.00;4.87;;;;;;;7.49;59.49;99516.13;4999072;28;41756;-77
2021/05/03 05:59:15;;;;;;;9.00;6.00;;;;;;;7.61;59.41;99512.16;5005888;28;43545;-78
2021/05/03 06:01:42;;;;;;;5.50;5.00;;;;;;;7.71;59.20;99508.22;5006366;28;42163;-77
2021/05/03 06:04:09;;;;;;;6.53;5.63;;;;;;;7.85;59.05;99519.06;4992217;28;39294;-77
2021/05/03 06:06:36;;;;;;;5.47;4.97;;;;;;;7.98;58.50;99525.56;5007163;28;42217;-78
2021/05/03 06:09:04;;;;;;;6.00;5.40;;;;;;;8.19;57.84;99531.72;4987466;28;42280;-77
2021/05/03 06:11:32;;;;;;;7.73;5.93;;;;;;;8.45;56.22;99535.91;4987629;28;42317;-76
2021/05/03 06:13:59;;;;;;;5.53;5.00;;;;;;;8.69;55.69;99528.72;4987988;28;40828;-77
2021/05/03 06:16:26;;;;;;;6.07;5.40;;;;;;;8.85;55.19;99525.31;4988139;28;41350;-77
2021/05/03 06:18:55;;;;;;;7.17;6.33;;;;;;;9.09;54.29;99541.00;4984152;28;41887;-75
2021/05/03 06:21:22;;;;;;;9.40;5.67;;;;;;;9.24;54.69;99541.16;5000172;28;42083;-77
2021/05/03 06:23:50;;;;;;;6.20;5.30;;;;;;;9.46;54.15;99543.66;4985890;28;40240;-77
2021/05/03 06:26:17;;;;;;;6.77;5.63;;;;;;;9.80;53.34;99547.31;4985260;28;41907;-77
2021/05/03 06:28:45;;;;;;;5.77;5.20;;;;;;;10.33;53.03;99550.88;4994531;28;41820;-75
2021/05/03 06:31:12;;;;;;;7.97;5.37;;;;;;;11.20;51.16;99564.00;4989539;28;42114;-74
2021/05/03 06:33:39;;;;;;;5.17;4.57;;;;;;;12.04;49.17;99576.16;4976307;28;39049;-75
2021/05/03 06:36:06;;;;;;;6.60;4.93;;;;;;;12.63;47.26;99591.28;4988588;28;42179;-74
2021/05/03 06:38:34;;;;;;;5.20;4.67;;;;;;;12.86;47.64;99581.91;4986907;28;43208;-75
2021/05/03 06:41:01;;;;;;;5.43;4.23;;;;;;;12.82;47.90;99570.63;4990750;28;41411;-76
2021/05/03 06:43:29;;;;;;;7.07;4.83;;;;;;;12.71;47.74;99574.88;5007778;28;40165;-72
2021/05/03 06:45:58;;;;;;;7.00;5.27;;;;;;;12.63;47.30;99577.13;4997894;28;42211;-72
2021/05/03 06:48:26;;;;;;;7.03;5.53;;;;;;;12.48;47.51;99561.16;4990074;28;41906;-73
2021/05/03 06:50:53;;;;;;;5.70;5.10;;;;;;;12.61;47.47;99571.06;4989300;28;41214;-75
2021/05/03 06:53:20;;;;;;;6.33;5.40;;;;;;;12.72;46.91;99568.63;5006325;28;40603;-73
2021/05/03 06:55:47;;;;;;;5.23;4.83;;;;;;;12.87;46.61;99573.84;5006776;28;40881;-76
2021/05/03 06:58:15;;;;;;;5.20;4.70;;;;;;;13.01;46.01;99580.13;5007217;28;43194;-73
2021/05/03 07:00:42;;;;;;;6.23;4.60;;;;;;;13.11;46.30;99575.97;5004876;28;43042;-75
2021/05/03 07:03:13;;;;;;;6.40;4.80;;;;;;;13.46;45.95;99576.50;5004267;28;41410;-75
2021/05/03 07:05:40;;;;;;;6.07;5.40;;;;;;;14.11;44.39;99598.03;4986615;28;41540;-76
2021/05/03 07:08:09;;;;;;;7.73;5.90;;;;;;;14.38;43.78;99599.75;4985760;28;43250;-73
2021/05/03 07:10:38;;;;;;;6.03;5.50;;;;;;;14.35;42.59;99604.41;5000284;28;42272;-75
2021/05/03 07:13:06;;;;;;;7.03;6.43;;;;;;;14.32;42.99;99597.50;5002477;28;39645;-74
2021/05/03 07:15:33;;;;;;;6.30;5.70;;;;;;;14.41;43.08;99596.06;4986976;28;41576;-72
2021/05/03 07:18:00;;;;;;;6.87;6.07;;;;;;;14.64;41.70;99600.69;4977352;28;42727;-74
2021/05/03 07:20:28;;;;;;;6.50;5.67;;;;;;;15.38;40.39;99601.81;5005061;28;42024;-74
2021/05/03 07:22:55;;;;;;;6.43;5.83;;;;;;;16.42;39.35;99621.91;5007554;28;39708;-73
2021/05/03 07:25:22;;;;;;;5.60;5.10;;;;;;;17.40;36.86;99637.56;4995064;28;42534;-75
2021/05/03 07:27:49;;;;;;;6.13;4.97;;;;;;;18.50;34.66;99647.47;4998698;28;42736;-74
2021/05/03 07:30:17;;;;;;;5.93;5.43;;;;;;;19.48;32.98;99627.47;4988260;28;41887;-75
2021/05/03 07:32:44;;;;;;;6.17;5.60;;;;;;;20.62;31.51;99660.31;5003027;28;40686;-74
2021/05/03 07:35:13;;;;;;;5.70;5.20;;;;;;;21.51;29.97;99669.09;4971853;28;41150;-76
2021/05/03 07:37:41;;;;;;;6.17;5.07;;;;;;;21.64;29.47;99656.13;5000597;28;42223;-74
2021/05/03 07:40:09;;;;;;;7.80;5.60;;;;;;;21.29;29.57;99655.94;5008110;28;41412;-74
2021/05/03 07:42:37;;;;;;;5.57;5.00;;;;;;;21.17;29.81;99653.34;5008940;28;39308;-75
2021/05/03 07:45:05;;;;;;;5.47;4.30;;;;;;;21.25;29.63;99646.44;4993090;28;41690;-77
2021/05/03 07:47:32;;;;;;;5.57;5.07;;;;;;;20.94;28.90;99649.28;4989012;28;42123;-76
2021/05/03 07:49:59;;;;;;;6.47;5.70;;;;;;;20.65;29.06;99656.47;4997779;28;41076;-77
2021/05/03 07:52:26;;;;;;;5.70;4.80;;;;;;;21.23;28.83;99645.75;5003840;28;41635;-75
2021/05/03 07:54:54;;;;;;;6.27;4.33;;;;;;;21.45;28.06;99646.25;4991131;28;42438;-75
2021/05/03 07:57:21;;;;;;;5.40;4.90;;;;;;;20.82;28.61;99650.41;4988429;28;42824;-77
2021/05/03 07:59:49;;;;;;;6.43;5.07;;;;;;;20.14;29.72;99635.13;4991195;28;41651;-74
2021/05/03 08:02:16;;;;;;;4.90;4.40;;;;;;;20.64;30.60;99638.66;5009606;28;39945;-75
2021/05/03 08:04:44;;;;;;;5.80;5.30;;;;;;;20.41;29.88;99641.56;5009535;28;40675;-76
2021/05/03 08:07:11;;;;;;;6.23;5.07;;;;;;;19.99;30.11;99634.66;5008620;28;48917;-75
2021/05/03 08:09:39;;;;;;;5.80;5.30;;;;;;;19.79;30.59;99636.41;5008684;28;42151;-74
2021/05/03 08:12:08;;;;;;;6.33;5.00;;;;;;;19.37;31.07;99622.19;5009685;28;40022;-74
2021/05/03 08:14:36;;;;;;;5.70;4.37;;;;;;;19.35;31.17;99618.78;5008271;28;42245;-75
2021/05/03 08:17:06;;;;;;;4.83;4.37;;;;;;;19.76;30.58;99628.63;5010042;28;43126;-76
2021/05/03 08:19:33;;;;;;;4.77;4.27;;;;;;;20.14;29.18;99611.78;5004057;28;42994;-76
2021/05/03 08:22:01;;;;;;;4.50;4.10;;;;;;;20.09;30.03;99632.84;4995314;28;39973;-76
2021/05/03 08:24:28;;;;;;;5.20;4.70;;;;;;;21.23;27.92;99640.34;4993627;28;41858;-78
2021/05/03 08:26:55;;;;;;;4.63;3.97;;;;;;;22.02;27.36;99638.13;5008991;28;43184;-73
2021/05/03 08:29:23;;;;;;;5.43;5.03;;;;;;;22.85;26.61;99647.84;5004696;28;42927;-73
2021/05/03 08:31:51;;;;;;;3.90;3.50;;;;;;;23.37;26.11;99650.66;4989813;28;40618;-75
2021/05/03 08:34:18;;;;;;;4.60;4.20;;;;;;;24.31;25.78;99648.84;5007237;28;41687;-74
2021/05/03 08:36:45;;;;;;;4.63;4.03;;;;;;;25.22;24.05;99663.22;5005680;28;43212;-74
2021/05/03 08:39:12;;;;;;;5.93;5.10;;;;;;;25.05;23.58;99670.53;5009489;28;42934;-75
2021/05/03 08:41:40;;;;;;;4.67;4.10;;;;;;;26.52;21.97;99676.50;5008438;28;40123;-75
2021/05/03 08:44:07;;;;;;;4.67;3.77;;;;;;;26.71;21.27;99680.63;5007694;28;41596;-75
2021/05/03 08:46:40;;;;;;;4.60;4.20;;;;;;;27.27;20.73;99684.88;4989845;28;43309;-74
2021/05/03 08:49:15;;;;;;;4.90;4.33;;;;;;;27.68;20.12;99662.75;5004527;28;42694;-75
2021/05/03 08:51:46;;;;;;;4.30;3.90;;;;;;;27.49;19.77;99678.53;5008856;28;40412;-75
2021/05/03 08:54:19;;;;;;;4.03;3.63;;;;;;;28.69;18.74;99676.50;5006666;28;41951;-77
2021/05/03 08:56:46;;;;;;;4.77;4.27;;;;;;;30.12;17.39;99682.66;5006295;28;43542;-74
2021/05/03 08:59:14;;;;;;;3.87;3.57;;;;;;;30.85;16.50;99685.72;5007414;28;41834;-76
2021/05/03 09:01:47;;;;;;;4.33;3.90;;;;;;;31.11;16.54;99684.97;4988281;28;39984;-75
2021/05/03 09:04:14;;;;;;;4.23;3.40;;;;;;;31.01;17.62;99664.31;5007698;28;42141;-78
2021/05/03 09:07:00;;;;;;;3.77;3.37;;;;;;;30.41;17.34;99656.09;5007346;28;41928;-75
2021/05/03 09:09:32;;;;;;;3.80;3.20;;;;;;;30.14;17.84;99647.78;5007920;28;42109;-75
2021/05/03 09:12:01;;;;;;;4.00;3.60;;;;;;;30.00;17.67;99646.88;5007859;28;39703;-76
2021/05/03 09:14:30;;;;;;;4.20;3.80;;;;;;;29.83;17.23;99650.06;5008480;28;41644;-77
2021/05/03 09:16:59;;;;;;;3.33;3.03;;;;;;;30.04;17.37;99641.00;5008676;28;42478;-76
2021/05/03 09:19:28;;;;;;;3.73;3.43;;;;;;;29.94;17.41;99641.31;5003585;28;42294;-77
2021/05/03 09:21:55;;;;;;;4.40;3.07;;;;;;;30.19;17.10;99637.06;4988603;28;40621;-76
2021/05/03 09:24:25;;;;;;;4.43;3.60;;;;;;;30.29;16.50;99640.25;4988783;28;41118;-74
2021/05/03 09:27:04;;;;;;;3.57;3.27;;;;;;;29.79;17.39;99640.63;5008938;28;43582;-77
2021/05/03 09:29:35;;;;;;;3.00;2.80;;;;;;;29.65;17.30;99642.41;5002920;28;42404;-76
2021/05/03 09:32:09;;;;;;;3.97;3.50;;;;;;;28.64;17.91;99627.19;4988466;28;41263;-77
2021/05/03 09:34:38;;;;;;;3.30;3.00;;;;;;;28.16;18.86;99618.63;5003626;28;41342;-77
2021/05/03 09:37:28;;;;;;;3.23;2.93;;;;;;;28.07;17.87;99617.00;5008518;28;42654;-76
2021/05/03 09:40:02;;;;;;;3.00;2.80;;;;;;;29.52;17.85;99621.31;5008864;28;42979;-75
2021/05/03 09:42:53;;;;;;;4.33;3.40;;;;;;;30.95;16.64;99623.25;4991709;28;39132;-74
2021/05/03 09:45:23;;;;;;;3.23;2.70;;;;;;;31.88;15.68;99624.09;4987259;28;41197;-75
2021/05/03 09:47:53;;;;;;;3.30;3.03;;;;;;;30.05;16.30;99621.66;5003848;28;41917;-76
2021/05/03 09:50:22;;;;;;;2.97;2.57;;;;;;;28.20;18.23;99614.50;4994629;28;43011;-77
2021/05/03 09:53:04;;;;;;;2.53;2.33;;;;;;;26.68;19.88;99605.78;4990873;28;40357;-74
2021/05/03 09:55:34;;;;;;;4.03;3.13;;;;;;;26.02;20.10;99598.97;4987800;28;41636;-74
2021/05/03 09:58:17;;;;;;;3.50;2.57;;;;;;;25.64;19.88;99605.22;4988567;28;43163;-74
2021/05/03 10:00:46;;;;;;;4.50;3.50;;;;;;;26.53;18.77;99591.25;5001428;28;41371;-75
2021/05/03 10:03:36;;;;;;;4.00;3.57;;;;;;;25.94;18.71;99590.03;5006613;28;40685;-80
2021/05/03 10:06:07;;;;;;;2.60;2.40;;;;;;;25.24;20.19;99579.84;4999136;28;42303;-77
2021/05/03 10:08:34;;;;;;;4.23;3.80;;;;;;;24.44;20.26;99589.66;5007798;28;43602;-77
2021/05/03 10:11:06;;;;;;;4.47;3.57;;;;;;;23.75;21.52;99568.22;5006639;28;42512;-77
2021/05/03 10:13:34;;;;;;;11.13;10.00;;;;;;;25.32;20.14;99552.75;5008258;28;39867;-77
2021/05/03 10:16:02;;;;;;;4.27;3.57;;;;;;;27.30;17.76;99581.13;4991478;28;41436;-77
2021/05/03 10:18:31;;;;;;;2.60;2.40;;;;;;;28.74;17.30;99580.50;4987637;28;43596;-76
2021/05/03 10:21:00;;;;;;;5.50;2.60;;;;;;;28.89;16.34;99592.22;4973881;28;42118;-75
2021/05/03 10:23:27;;;;;;;2.60;2.40;;;;;;;27.52;17.22;99580.22;4986393;28;41362;-76
2021/05/03 10:25:57;;;;;;;3.00;2.60;;;;;;;28.79;17.73;99564.44;4992914;28;20234;-77
2021/05/03 10:28:25;;;;;;;2.20;2.00;;;;;;;30.98;16.81;99560.75;4986747;28;42518;-76
2021/05/03 10:30:57;;;;;;;3.20;2.90;;;;;;;32.99;14.52;99584.34;4975834;28;42999;-76
2021/05/03 10:33:35;;;;;;;3.10;2.80;;;;;;;34.37;13.21;99584.81;5005677;28;40745;-76
2021/05/03 10:36:04;;;;;;;2.90;2.63;;;;;;;33.26;13.15;99579.47;5004870;28;41037;-73
2021/05/03 10:38:40;;;;;;;3.83;2.77;;;;;;;30.81;15.34;99577.75;5004236;28;43674;-76
2021/05/03 10:41:24;;;;;;;2.80;2.50;;;;;;;29.24;16.05;99565.88;5004460;28;41814;-75
2021/05/03 10:44:09;;;;;;;2.70;2.50;;;;;;;28.53;17.04;99554.09;5006459;28;39603;-77
2021/05/03 10:49:43;;;;;;;3.03;2.73;;;;;;;28.70;17.90;99546.47;4984933;28;42624;-75
2021/05/03 10:52:15;;;;;;;3.07;2.77;;;;;;;29.40;17.37;99530.13;4986644;28;41739;-76
2021/05/03 10:54:49;;;;;;;2.77;2.57;;;;;;;29.73;15.48;99552.13;4987105;28;40631;-76
2021/05/03 10:57:36;;;;;;;3.60;2.30;;;;;;;29.77;16.99;99536.19;5000189;28;41639;-77
2021/05/03 11:00:21;;;;;;;3.00;2.70;;;;;;;29.75;16.28;99538.28;4990283;28;42114;-74
2021/05/03 11:02:57;;;;;;;3.67;2.40;;;;;;;29.89;15.32;99534.56;4995795;28;42951;-76
2021/05/03 11:05:26;;;;;;;2.93;2.63;;;;;;;30.47;14.27;99549.50;4995710;28;40377;-80
2021/05/03 11:08:35;;;;;;;3.03;2.37;;;;;;;32.43;14.59;99530.25;4974170;28;40505;-75
2021/05/03 11:11:12;;;;;;;2.90;2.70;;;;;;;34.08;13.33;99542.47;4989389;28;41593;-73
2021/05/03 11:13:46;;;;;;;3.37;2.40;;;;;;;35.04;12.19;99547.00;4990632;28;42728;-76
2021/05/03 11:16:52;;;;;;;2.90;2.47;;;;;;;34.81;11.58;99549.72;5010466;28;41576;-77
2021/05/03 11:20:00;;;;;;;2.83;2.63;;;;;;;33.24;12.51;99543.19;5006516;28;42433;-77
2021/05/03 11:22:42;;;;;;;5.17;2.60;;;;;;;30.66;14.27;99529.56;4990562;28;43233;-75
2021/05/03 11:25:12;;;;;;;3.17;2.27;;;;;;;29.29;15.30;99522.47;4990940;28;43125;-74
2021/05/03 11:27:54;;;;;;;2.40;2.20;;;;;;;28.48;14.79;99534.75;4991671;28;40332;-76
2021/05/03 11:30:27;;;;;;;3.60;2.20;;;;;;;27.29;16.54;99506.00;4990256;28;41573;-75
2021/05/03 11:32:58;;;;;;;4.23;2.60;;;;;;;26.57;17.76;99499.38;4990592;28;42590;-75
2021/05/03 11:35:31;;;;;;;2.57;2.37;;;;;;;26.21;17.88;99488.25;5008087;28;41957;-74
2021/05/03 11:38:04;;;;;;;2.60;2.40;;;;;;;27.01;17.09;99481.31;4999570;28;40560;-75
2021/05/03 11:40:56;;;;;;;1.90;1.77;;;;;;;28.65;18.24;99459.00;4989404;28;40966;-74
2021/05/03 11:46:25;;;;;;;4.07;2.57;;;;;;;30.15;15.08;99491.00;4986218;28;42137;-75
2021/05/03 11:48:53;;;;;;;4.30;2.43;;;;;;;31.37;14.67;99485.16;4990544;28;40592;-75
2021/05/03 11:51:20;;;;;;;3.87;2.70;;;;;;;32.91;13.80;99494.03;5001900;28;42443;-75
2021/05/03 11:53:48;;;;;;;3.60;1.83;;;;;;;34.45;13.13;99499.25;4988600;28;43458;-73
2021/05/03 11:56:18;;;;;;;2.77;2.00;;;;;;;32.72;12.44;99514.25;4989157;28;42213;-74
2021/05/03 11:58:45;;;;;;;2.83;2.50;;;;;;;31.11;13.63;99490.69;4990794;28;38961;-76
2021/05/03 12:01:14;;;;;;;2.43;2.23;;;;;;;31.77;14.67;99492.19;5002456;28;41819;-75
2021/05/03 12:03:42;;;;;;;3.30;2.60;;;;;;;32.69;13.33;99496.31;5009847;28;41498;-75
2021/05/03 12:06:10;;;;;;;2.57;2.20;;;;;;;34.29;13.03;99480.66;5007821;28;41435;-76
2021/05/03 12:08:38;;;;;;;3.13;2.30;;;;;;;35.87;12.20;99483.38;5009561;28;41533;-76